Flight Track Log - Related Links

Times and Time Zones

All times are in EST time to prevent confusion due to time zone crossing. See the SWA4812 flight status page for this flight to view local times or setup timezone preferences in your user account.

Time Position Orientation Groundspeed Altitude Reporting Facility
EST Latitude Longitude Course Direction KTS MPH feet Rate Location/Type
Sun 11:58:29 PM 38.6872 -121.4619 128° Southeast 278 320 10,500  Level Oakland Center
Sun 11:59:30 PM 38.6308 -121.3664 127° Southeast 325 374 13,900 3,689 Climbing Oakland Center
Mon 12:00:31 AM 38.5686 -121.2586 126° Southeast 368 423 18,000 4,131 Climbing Oakland Center
Mon 12:01:32 AM 38.4944 -121.1303 126° Southeast 385 443 22,300 3,639 Climbing Oakland Center
Mon 12:02:33 AM 38.4242 -121.0100 127° Southeast 416 479 25,400 2,902 Climbing Oakland Center
Mon 12:03:34 AM 38.3506 -120.8858 127° Southeast 434 499 28,200 1,770 Climbing Oakland Center
Mon 12:04:35 AM 38.2731 -120.7544 127° Southeast 458 527 29,000 393 Climbing Oakland Center
Mon 12:05:36 AM 38.1800 -120.6339 134° Southeast 481 554 29,000  Level Oakland Center
Mon 12:06:37 AM 38.0747 -120.5308 142° Southeast 478 550 29,000  Level Oakland Center
Mon 12:07:38 AM 37.9672 -120.4269 143° Southeast 483 556 29,000  Level Oakland Center
Mon 12:08:39 AM 37.8611 -120.3233 142° Southeast 482 555 29,000  Level Oakland Center
Mon 12:09:40 AM 37.7547 -120.2197 142° Southeast 483 556 29,000  Level Oakland Center
Mon 12:10:41 AM 37.6486 -120.1181 143° Southeast 479 551 29,000  Level Oakland Center
Mon 12:11:42 AM 37.5225 -119.9964 143° Southeast 475 547 29,000  Level Oakland Center
Mon 12:12:43 AM 37.4178 -119.8964 143° Southeast 473 544 29,000  Level Oakland Center
Mon 12:13:44 AM 37.3200 -119.8017 142° Southeast 475 547 29,000  Level Oakland Center
Mon 12:14:45 AM 37.2142 -119.7003 143° Southeast 479 551 29,000  Level Oakland Center
Mon 12:15:46 AM 37.1061 -119.6019 144° Southeast 480 552 29,000  Level Oakland Center
Mon 12:16:47 AM 36.9819 -119.5375 157° South 484 557 29,000  Level Oakland Center
Mon 12:17:48 AM 36.8575 -119.4775 159° South 479 551 29,000  Level Oakland Center
Mon 12:18:49 AM 36.7342 -119.4194 159° South 475 547 29,000  Level Oakland Center
Mon 12:19:50 AM 36.6094 -119.3594 159° South 477 549 29,000  Level Oakland Center
Mon 12:20:52 AM 36.4611 -119.2900 159° South 476 548 29,000  Level Oakland Center
Mon 12:21:53 AM 36.3372 -119.2308 159° South 476 548 29,000  Level Oakland Center
Mon 12:22:54 AM 36.2119 -119.1719 159° South 479 551 29,000  Level Oakland Center
Mon 12:23:55 AM 36.0872 -119.1136 159° South 479 551 29,000  Level Oakland Center
Mon 12:24:56 AM 35.9611 -119.0542 159° South 481 554 29,000  Level Oakland Center
Mon 12:25:56 AM 35.8356 -118.9950 159° South 478 550 29,000  Level Los Angeles Center
Mon 12:26:57 AM 35.7108 -118.9375 159° South 477 549 29,000  Level Los Angeles Center
Mon 12:27:58 AM 35.5867 -118.8803 159° South 476 548 29,000  Level Los Angeles Center
Mon 12:28:59 AM 35.4633 -118.8233 159° South 473 544 29,000  Level Los Angeles Center
Mon 12:30:00 AM 35.3392 -118.7664 159° South 474 545 29,000  Level Los Angeles Center
Mon 12:31:01 AM 35.2147 -118.7097 160° South 474 545 29,000  Level Los Angeles Center
Mon 12:32:02 AM 35.0925 -118.6522 159° South 472 543 29,000  Level Los Angeles Center
Mon 12:33:03 AM 34.9808 -118.5722 150° Southeast 471 542 29,000  Level Los Angeles Center
Mon 12:34:04 AM 34.8942 -118.4450 130° Southeast 462 532 29,000  Level Los Angeles Center
Mon 12:35:05 AM 34.8128 -118.3258 130° Southeast 460 529 29,000 -1,180 Level Los Angeles Center
Mon 12:36:06 AM 34.7322 -118.2097 130° Southeast 455 524 26,600 -2,607 Descending Los Angeles Center
Mon 12:37:07 AM 34.6550 -118.1003 131° Southeast 434 499 23,700 -1,967 Descending Los Angeles Center
Mon 12:38:08 AM 34.5933 -117.9817 122° Southeast 423 487 22,600 -1,869 Descending Los Angeles Center
Mon 12:39:09 AM 34.5275 -117.8403 119° Southeast 406 467 19,900 -2,508 Descending Los Angeles Center
Mon 12:40:10 AM 34.4758 -117.7269 119° Southeast 391 450 17,500 -2,459 Descending Los Angeles Center
Mon 12:41:11 AM 34.4264 -117.6181 119° Southeast 375 432 14,900 -1,756 Descending Los Angeles Center
Mon 12:42:13 AM 34.3828 -117.5192 118° Southeast 339 390 13,900 -1,463 Descending Los Angeles Center
Mon 12:43:14 AM 34.3433 -117.4344 119° Southeast 313 360 11,900 -1,967 Descending Los Angeles Center
Mon 12:44:15 AM 34.2925 -117.3619 130° Southeast 301 346 9,900 -2,016 Descending Los Angeles Center
Mon 12:45:16 AM 34.2006 -117.3942 196° South 292 336 7,800 -2,311 Descending Los Angeles Center
Mon 12:46:17 AM 34.1433 -117.4619 224° Southwest 294 338 5,200 -2,066 Descending Los Angeles Center
Mon 12:47:18 AM 34.0986 -117.5414 236° Southwest 289 333 3,600 -1,082 Descending Los Angeles Center
Mon 12:48:19 AM 34.0961 -117.6253 268° West 267 307 3,000 -393 Descending Los Angeles Center
Mon 12:49:20 AM 34.0983 -117.6858 273° West 217 250 2,800 -492 Descending Los Angeles Center
Mon 12:50:21 AM 34.0597 -117.6781 171° South 172 198 2,000 -787 Descending Los Angeles Center
Mon 12:51:22 AM 34.0564 -117.6328 95° East 150 173 1,200 -787 Descending Los Angeles Center
Mon 12:53:00 AM 34.0500 -117.6000 116° Southeast  Level FlightAware Approximate
Mon 01:00:00 AM 34.0560 -117.6012 116° Southeast  Level Estimated

Login

Don't have an account? Register now (free) for customized features, flight alerts, and more!